Marcelin, Canada
Current Conditions -  °F | °C
As of 10:00 AM on Thursday 27 Nov 2014 (Local Time) from CYPA Reporting Station
Light Snow Light Snow  
Wind Chill:   Ceiling: 1000
Heat Index:   Visibility: 12mi
Dew Point:   Wind: 0mph
Humidity: 85%   Direction: NA
Pressure: 30.14"   Gusts: NA
Location:  52.93°N, 106.78°W
Report Text: CYPA 271600Z 00000KT 12SM -SN OVC010 M16/M18 A3014 RMK SC8 SLP254
Loading
Personal Weather Stations






























Interactive Weather Map New forecast layout! Learn more

10-Day Weather Forecast

Advertisements
Track Severe Weather on mobile